createdAt,value
2023-05-21T00:00:12.019Z,25.23
2023-05-21T00:01:16.489Z,21.40
2023-05-21T00:02:18.866Z,22.73
2023-05-21T00:03:21.234Z,23.03
2023-05-21T00:04:23.170Z,22.40
2023-05-21T00:05:25.165Z,22.90
2023-05-21T00:06:27.780Z,19.87
2023-05-21T00:07:31.608Z,25.00
2023-05-21T00:08:34.558Z,21.57
2023-05-21T00:09:38.300Z,23.87
2023-05-21T00:10:39.851Z,21.00
2023-05-21T00:11:41.505Z,21.93
2023-05-21T00:12:43.243Z,21.40
2023-05-21T00:13:44.817Z,25.10
2023-05-21T00:14:46.737Z,22.67
2023-05-21T00:15:48.366Z,25.60
2023-05-21T00:16:50.097Z,22.60
2023-05-21T00:17:52.112Z,22.90
2023-05-21T00:18:54.757Z,21.43
2023-05-21T00:20:00.210Z,23.13
2023-05-21T00:21:02.246Z,22.63
2023-05-21T00:22:04.712Z,21.43
2023-05-21T00:23:06.571Z,26.47
2023-05-21T00:24:08.327Z,28.67
2023-05-21T00:25:11.069Z,22.57
2023-05-21T00:26:12.656Z,24.53
2023-05-21T00:27:14.229Z,22.30
2023-05-21T00:28:16.092Z,22.93
2023-05-21T00:29:18.194Z,25.43
2023-05-21T00:30:19.970Z,26.20
2023-05-21T00:31:21.796Z,24.00
2023-05-21T00:32:23.541Z,24.47
2023-05-21T00:33:26.712Z,24.37
2023-05-21T00:34:29.680Z,25.37
2023-05-21T00:35:31.277Z,23.17
2023-05-21T00:36:34.750Z,26.97
2023-05-21T00:37:36.386Z,22.90
2023-05-21T00:38:38.197Z,27.23
2023-05-21T00:39:39.747Z,25.60
2023-05-21T00:40:41.453Z,26.17
2023-05-21T00:41:46.672Z,24.40
2023-05-21T00:42:48.348Z,27.63
2023-05-21T00:43:50.228Z,23.97
2023-05-21T00:44:54.203Z,26.20
2023-05-21T00:45:56.562Z,23.27
2023-05-21T00:46:58.947Z,24.37
2023-05-21T00:48:02.826Z,24.90
2023-05-21T00:49:04.486Z,23.43
2023-05-21T00:50:06.601Z,25.33
2023-05-21T00:51:08.145Z,23.70
2023-05-21T00:52:09.959Z,24.20
2023-05-21T00:53:11.576Z,22.97
2023-05-21T00:54:13.311Z,23.80
2023-05-21T00:55:15.165Z,22.83
2023-05-21T00:56:17.116Z,28.87
2023-05-21T00:57:20.847Z,24.50
2023-05-21T00:58:22.761Z,24.90
2023-05-21T00:59:24.534Z,24.60
2023-05-21T01:00:26.600Z,24.27
2023-05-21T01:01:34.088Z,25.50
2023-05-21T01:02:37.322Z,24.43
2023-05-21T01:03:39.648Z,25.70
2023-05-21T01:04:41.229Z,24.20
2023-05-21T01:05:45.240Z,24.80
2023-05-21T01:06:46.798Z,30.97
2023-05-21T01:07:48.483Z,24.57
2023-05-21T01:08:50.973Z,24.70
2023-05-21T01:09:54.278Z,26.50
2023-05-21T01:10:56.695Z,26.63
2023-05-21T01:12:00.754Z,27.60
2023-05-21T01:13:02.491Z,25.53
2023-05-21T01:14:05.106Z,24.47
2023-05-21T01:15:07.201Z,24.27
2023-05-21T01:16:09.370Z,27.77
2023-05-21T01:17:13.148Z,25.23
2023-05-21T01:18:16.212Z,28.03
2023-05-21T01:19:22.215Z,26.67
2023-05-21T01:20:24.435Z,30.23
2023-05-21T01:21:28.524Z,26.43
2023-05-21T01:22:32.307Z,28.80
2023-05-21T01:23:34.280Z,25.37
2023-05-21T01:24:35.857Z,26.03
2023-05-21T01:25:37.549Z,29.97
2023-05-21T01:26:42.796Z,28.27
2023-05-21T01:27:44.384Z,29.43
2023-05-21T01:28:46.935Z,26.87
2023-05-21T01:29:48.582Z,27.10
2023-05-21T01:30:50.378Z,31.90
2023-05-21T01:32:11.174Z,28.53
2023-05-21T01:33:24.974Z,27.87
2023-05-21T01:34:30.500Z,27.97
2023-05-21T01:35:36.616Z,29.07
2023-05-21T01:36:42.284Z,28.20
2023-05-21T01:37:46.218Z,26.07
2023-05-21T01:38:58.641Z,27.20
2023-05-21T01:40:04.266Z,28.00
2023-05-21T01:41:11.434Z,27.60
2023-05-21T01:42:13.770Z,25.97
2023-05-21T01:43:15.769Z,26.60
2023-05-21T01:44:18.846Z,29.20
2023-05-21T01:45:22.456Z,29.97
2023-05-21T01:46:25.948Z,30.33
2023-05-21T01:47:29.146Z,31.33
2023-05-21T01:48:31.155Z,26.97
2023-05-21T01:49:32.988Z,32.30
2023-05-21T01:50:35.519Z,28.83
2023-05-21T01:51:37.395Z,30.77
2023-05-21T01:52:38.959Z,27.03
2023-05-21T01:53:40.989Z,29.60
2023-05-21T01:54:42.623Z,30.27
2023-05-21T01:55:44.690Z,31.40
2023-05-21T01:56:47.972Z,32.67
2023-05-21T01:57:49.616Z,29.00
2023-05-21T01:58:51.660Z,28.53
2023-05-21T01:59:53.507Z,26.80
2023-05-21T02:00:55.664Z,26.93
2023-05-21T02:01:57.290Z,29.93
2023-05-21T02:02:59.011Z,30.57
2023-05-21T02:04:00.969Z,29.53
2023-05-21T02:05:02.593Z,27.73
2023-05-21T02:06:04.308Z,28.10
2023-05-21T02:07:06.812Z,30.90
2023-05-21T02:08:08.522Z,27.17
2023-05-21T02:09:10.041Z,32.37
2023-05-21T02:10:11.832Z,31.40
2023-05-21T02:11:13.559Z,27.33
2023-05-21T02:12:15.100Z,28.73
2023-05-21T02:13:20.464Z,32.63
2023-05-21T02:14:22.409Z,27.07
2023-05-21T02:15:24.966Z,28.73
2023-05-21T02:16:26.632Z,28.30
2023-05-21T02:17:31.291Z,30.40
2023-05-21T02:18:34.212Z,26.63
2023-05-21T02:19:35.903Z,31.27
2023-05-21T02:20:37.474Z,27.50
2023-05-21T02:21:39.037Z,26.87
2023-05-21T02:22:44.653Z,29.93
2023-05-21T02:23:46.212Z,27.53
2023-05-21T02:24:47.695Z,32.90
2023-05-21T02:25:49.296Z,32.77
2023-05-21T02:26:52.350Z,26.50
2023-05-21T02:27:56.689Z,29.33
2023-05-21T02:28:58.516Z,29.43
2023-05-21T02:30:00.086Z,33.63
2023-05-21T02:31:01.660Z,30.80
2023-05-21T02:32:03.277Z,28.00
2023-05-21T02:33:04.917Z,26.20
2023-05-21T02:34:08.003Z,28.30
2023-05-21T02:35:10.371Z,34.63
2023-05-21T02:36:15.547Z,38.60
2023-05-21T02:37:17.716Z,29.73
2023-05-21T02:38:23.343Z,32.40
2023-05-21T02:39:25.515Z,27.20
2023-05-21T02:40:27.175Z,28.03
2023-05-21T02:41:28.741Z,29.40
2023-05-21T02:42:30.445Z,28.00
2023-05-21T02:43:32.032Z,25.97
2023-05-21T02:44:33.582Z,30.07
2023-05-21T02:45:35.510Z,32.60
2023-05-21T02:46:37.435Z,30.73
2023-05-21T02:47:39.224Z,30.83
2023-05-21T02:48:40.983Z,33.60
2023-05-21T02:49:42.551Z,27.03
2023-05-21T02:50:44.140Z,33.00
2023-05-21T02:51:45.681Z,33.57
2023-05-21T02:52:47.205Z,31.40
2023-05-21T02:53:48.863Z,32.63
2023-05-21T02:54:50.593Z,34.40
2023-05-21T02:55:52.213Z,27.27
2023-05-21T02:56:53.742Z,30.60
2023-05-21T02:57:55.449Z,31.87
2023-05-21T02:58:57.184Z,26.50
2023-05-21T02:59:58.810Z,30.80
2023-05-21T03:01:00.451Z,30.93
2023-05-21T03:02:02.168Z,32.87
2023-05-21T03:03:03.996Z,31.20
2023-05-21T03:04:05.777Z,27.60
2023-05-21T03:05:07.638Z,29.97
2023-05-21T03:06:10.205Z,30.93
2023-05-21T03:07:15.106Z,32.80
2023-05-21T03:08:17.036Z,35.17
2023-05-21T03:09:18.623Z,32.10
2023-05-21T03:10:20.181Z,31.97
2023-05-21T03:11:22.694Z,32.97
2023-05-21T03:12:24.252Z,31.50
2023-05-21T03:13:25.905Z,35.63
2023-05-21T03:14:29.038Z,29.23
2023-05-21T03:15:33.397Z,34.40
2023-05-21T03:16:34.976Z,34.77
2023-05-21T03:17:36.614Z,34.13
2023-05-21T03:18:38.309Z,33.13
2023-05-21T03:19:40.802Z,34.17
2023-05-21T03:20:44.531Z,31.40
2023-05-21T03:21:46.396Z,33.43
2023-05-21T03:22:48.320Z,32.13
2023-05-21T03:23:49.886Z,39.33
2023-05-21T03:24:51.671Z,32.77
2023-05-21T03:25:53.204Z,32.70
2023-05-21T03:26:54.722Z,36.90
2023-05-21T03:27:57.004Z,33.47
2023-05-21T03:28:58.987Z,34.03
2023-05-21T03:30:00.580Z,34.33
2023-05-21T03:31:02.160Z,36.87
2023-05-21T03:32:03.917Z,38.53
2023-05-21T03:33:06.562Z,36.63
2023-05-21T03:34:09.054Z,36.37
2023-05-21T03:35:10.846Z,34.80
2023-05-21T03:36:12.548Z,34.20
2023-05-21T03:37:14.053Z,35.87
2023-05-21T03:38:15.646Z,31.93
2023-05-21T03:39:17.382Z,36.43
2023-05-21T03:40:19.008Z,39.00
2023-05-21T03:41:21.572Z,33.33
2023-05-21T03:42:23.150Z,40.40
2023-05-21T03:43:24.640Z,36.20
2023-05-21T03:44:26.182Z,37.10
2023-05-21T03:45:27.742Z,37.70
2023-05-21T03:46:29.494Z,36.50
2023-05-21T03:47:31.116Z,39.10
2023-05-21T03:48:32.663Z,36.17
2023-05-21T03:49:34.281Z,39.03
2023-05-21T03:50:36.686Z,39.03
2023-05-21T03:51:38.401Z,44.07
2023-05-21T03:52:39.962Z,42.87
2023-05-21T03:53:41.621Z,39.97
2023-05-21T03:54:43.346Z,42.37
2023-05-21T03:55:44.982Z,41.00
2023-05-21T03:56:46.499Z,38.07
2023-05-21T03:57:48.069Z,36.30
2023-05-21T03:58:49.723Z,38.23
2023-05-21T03:59:51.321Z,38.80
2023-05-21T04:00:52.843Z,35.30
2023-05-21T04:01:55.285Z,33.33
2023-05-21T04:02:56.932Z,34.13
2023-05-21T04:03:58.671Z,39.77
2023-05-21T04:05:00.316Z,36.40
2023-05-21T04:06:02.489Z,37.33
2023-05-21T04:07:04.718Z,35.37
2023-05-21T04:08:06.888Z,36.13
2023-05-21T04:09:08.853Z,33.93
2023-05-21T04:10:10.592Z,35.20
2023-05-21T04:11:12.202Z,35.20
2023-05-21T04:12:13.994Z,45.03
2023-05-21T04:13:15.677Z,40.17
2023-05-21T04:14:17.354Z,41.47
2023-05-21T04:15:22.124Z,43.97
2023-05-21T04:16:24.620Z,39.50
2023-05-21T04:17:27.092Z,41.70
2023-05-21T04:18:28.684Z,41.53
2023-05-21T04:19:30.566Z,42.10
2023-05-21T04:20:32.278Z,41.47
2023-05-21T04:21:33.783Z,39.87
2023-05-21T04:22:35.425Z,36.80
2023-05-21T04:23:37.005Z,41.00
2023-05-21T04:24:38.755Z,38.97
2023-05-21T04:25:40.601Z,45.20
2023-05-21T04:26:42.446Z,36.57
2023-05-21T04:27:47.775Z,44.20
2023-05-21T04:28:50.440Z,45.40
2023-05-21T04:29:52.060Z,41.70
2023-05-21T04:30:53.579Z,41.53
2023-05-21T04:31:55.263Z,39.60
2023-05-21T04:32:57.949Z,42.87
2023-05-21T04:33:59.725Z,39.37
2023-05-21T04:35:01.346Z,37.10
2023-05-21T04:36:03.987Z,37.50
2023-05-21T04:37:06.899Z,40.27
2023-05-21T04:38:08.499Z,44.07
2023-05-21T04:39:10.043Z,41.50
2023-05-21T04:40:12.347Z,35.20
2023-05-21T04:41:14.789Z,36.57
2023-05-21T04:42:16.377Z,37.73
2023-05-21T04:43:18.276Z,32.40
2023-05-21T04:44:19.850Z,36.57
2023-05-21T04:45:24.665Z,37.83
2023-05-21T04:46:27.001Z,35.43
2023-05-21T04:47:35.704Z,32.50
2023-05-21T04:48:37.574Z,33.03
2023-05-21T04:49:39.114Z,31.97
2023-05-21T04:50:41.599Z,32.10
2023-05-21T04:51:43.271Z,31.60
2023-05-21T04:52:45.626Z,39.93
2023-05-21T04:53:48.139Z,31.70
2023-05-21T04:54:49.951Z,34.07
2023-05-21T04:55:51.670Z,29.43
2023-05-21T04:56:53.273Z,28.77
2023-05-21T04:57:54.845Z,33.87
2023-05-21T04:58:58.819Z,30.80
2023-05-21T05:00:00.420Z,29.47
2023-05-21T05:01:04.102Z,34.27
2023-05-21T05:02:05.922Z,29.27
2023-05-21T05:03:07.742Z,26.40
2023-05-21T05:04:09.603Z,28.87
2023-05-21T05:05:11.180Z,28.70
2023-05-21T05:06:12.669Z,28.60
2023-05-21T05:07:15.003Z,26.53
2023-05-21T05:08:17.107Z,26.17
2023-05-21T05:09:19.130Z,25.27
2023-05-21T05:10:20.725Z,26.47
2023-05-21T05:11:22.657Z,30.67
2023-05-21T05:12:24.174Z,27.90
2023-05-21T05:13:26.272Z,26.10
2023-05-21T05:14:27.958Z,27.20
2023-05-21T05:15:29.596Z,33.83
2023-05-21T05:16:31.217Z,28.63
2023-05-21T05:17:32.821Z,33.13
2023-05-21T05:18:34.853Z,26.53
2023-05-21T05:19:36.667Z,31.47
2023-05-21T05:20:38.357Z,30.03
2023-05-21T05:21:39.990Z,23.33
2023-05-21T05:22:41.719Z,29.77
2023-05-21T05:23:43.316Z,32.10
2023-05-21T05:24:44.794Z,24.83
2023-05-21T05:25:46.574Z,25.90
2023-05-21T05:26:48.189Z,25.43
2023-05-21T05:27:49.798Z,24.27
2023-05-21T05:28:51.344Z,26.83
2023-05-21T05:29:52.832Z,22.30
2023-05-21T05:30:54.494Z,23.57
2023-05-21T05:31:56.199Z,22.37
2023-05-21T05:32:57.785Z,21.50
2023-05-21T05:33:59.466Z,25.27
2023-05-21T05:35:02.371Z,27.83
2023-05-21T05:36:04.373Z,23.87
2023-05-21T05:37:06.216Z,24.47
2023-05-21T05:38:09.055Z,29.83
2023-05-21T05:39:10.726Z,23.63
2023-05-21T05:40:12.395Z,25.27
2023-05-21T05:41:13.930Z,27.23
2023-05-21T05:42:15.656Z,20.53
2023-05-21T05:43:17.210Z,22.67
2023-05-21T05:44:18.790Z,23.33
2023-05-21T05:45:20.749Z,23.57
2023-05-21T05:46:22.285Z,23.60
2023-05-21T05:47:24.383Z,24.17
2023-05-21T05:48:26.121Z,23.30
2023-05-21T05:49:27.675Z,32.33
2023-05-21T05:50:29.434Z,22.40
2023-05-21T05:51:30.926Z,22.57
2023-05-21T05:52:32.500Z,27.63
2023-05-21T05:53:33.979Z,21.17
2023-05-21T05:54:35.745Z,22.93
2023-05-21T05:55:37.558Z,28.43
2023-05-21T05:56:39.458Z,24.90
2023-05-21T05:57:41.490Z,24.43
2023-05-21T05:58:44.322Z,26.30
2023-05-21T05:59:46.100Z,21.97
2023-05-21T06:00:47.635Z,22.23
2023-05-21T06:01:49.163Z,29.57
2023-05-21T06:02:50.957Z,23.90
2023-05-21T06:03:53.012Z,23.67
2023-05-21T06:04:54.707Z,23.53
2023-05-21T06:05:56.378Z,26.63
2023-05-21T06:06:58.013Z,23.03
2023-05-21T06:07:59.473Z,24.20
2023-05-21T06:09:01.026Z,27.60
2023-05-21T06:10:02.605Z,25.27
2023-05-21T06:11:04.175Z,24.77
2023-05-21T06:12:06.784Z,25.47
2023-05-21T06:13:08.343Z,22.90
2023-05-21T06:14:09.896Z,28.20
2023-05-21T06:15:11.640Z,21.23
2023-05-21T06:16:13.695Z,22.00
2023-05-21T06:17:15.463Z,24.20
2023-05-21T06:18:17.005Z,23.43
2023-05-21T06:19:19.194Z,23.00
2023-05-21T06:20:21.005Z,21.43
2023-05-21T06:21:22.513Z,22.83
2023-05-21T06:22:25.592Z,22.27
2023-05-21T06:23:27.350Z,24.20
2023-05-21T06:24:29.170Z,22.83
2023-05-21T06:25:31.975Z,22.77
2023-05-21T06:26:33.524Z,23.30
2023-05-21T06:27:35.181Z,22.40
2023-05-21T06:28:37.026Z,24.40
2023-05-21T06:29:40.776Z,21.93
2023-05-21T06:30:42.435Z,24.03
2023-05-21T06:31:44.272Z,26.73
2023-05-21T06:32:45.886Z,22.93
2023-05-21T06:33:49.432Z,19.57
2023-05-21T06:34:51.378Z,22.13
2023-05-21T06:35:53.433Z,20.07
2023-05-21T06:36:55.033Z,22.60
2023-05-21T06:37:56.547Z,22.47
2023-05-21T06:38:58.190Z,22.97
2023-05-21T06:39:59.841Z,22.60
2023-05-21T06:41:02.840Z,23.70
2023-05-21T06:42:04.459Z,23.03
2023-05-21T06:43:06.120Z,22.30
2023-05-21T06:44:07.918Z,22.20
2023-05-21T06:45:09.807Z,21.60
2023-05-21T06:46:11.506Z,26.10
2023-05-21T06:47:13.101Z,22.77
2023-05-21T06:48:16.109Z,20.50
2023-05-21T06:49:17.719Z,23.07
2023-05-21T06:50:20.229Z,23.80
2023-05-21T06:51:21.825Z,22.40
2023-05-21T06:52:23.687Z,19.40
2023-05-21T06:53:25.378Z,22.90
2023-05-21T06:54:27.154Z,20.63
2023-05-21T06:55:29.514Z,21.60
2023-05-21T06:56:31.061Z,21.03
2023-05-21T06:57:32.562Z,22.40
2023-05-21T06:58:34.214Z,18.40
2023-05-21T06:59:35.899Z,23.10
2023-05-21T07:00:37.559Z,21.40
2023-05-21T07:01:42.571Z,22.07
2023-05-21T07:02:44.402Z,20.77
2023-05-21T07:03:46.190Z,21.30
2023-05-21T07:04:47.734Z,20.50
2023-05-21T07:05:49.506Z,21.57
2023-05-21T07:06:52.431Z,20.37
2023-05-21T07:07:54.014Z,21.60
2023-05-21T07:08:55.727Z,24.40
2023-05-21T07:09:57.346Z,19.97
2023-05-21T07:10:59.094Z,23.90
2023-05-21T07:12:02.211Z,20.37
2023-05-21T07:13:03.836Z,18.97
2023-05-21T07:14:05.642Z,21.23
2023-05-21T07:15:07.590Z,19.97
2023-05-21T07:16:09.154Z,25.03
2023-05-21T07:17:10.873Z,18.37
2023-05-21T07:18:13.387Z,19.13
2023-05-21T07:19:15.513Z,21.27
2023-05-21T07:20:17.156Z,20.20
2023-05-21T07:21:18.778Z,19.80
2023-05-21T07:22:20.512Z,19.40
2023-05-21T07:23:22.284Z,21.00
2023-05-21T07:24:24.005Z,17.37
2023-05-21T07:25:25.740Z,20.53
2023-05-21T07:26:27.376Z,17.80
2023-05-21T07:27:29.166Z,17.67
2023-05-21T07:28:30.813Z,17.90
2023-05-21T07:29:33.577Z,16.57
2023-05-21T07:30:35.127Z,18.27
2023-05-21T07:31:36.838Z,18.33
2023-05-21T07:32:38.514Z,18.20
2023-05-21T07:33:40.224Z,18.50
2023-05-21T07:34:41.764Z,16.93
2023-05-21T07:35:43.329Z,18.17
2023-05-21T07:36:44.944Z,16.50
2023-05-21T07:37:47.058Z,18.27
2023-05-21T07:38:48.636Z,16.50
2023-05-21T07:39:50.346Z,17.10
2023-05-21T07:40:51.972Z,16.20
2023-05-21T07:41:53.526Z,20.63
2023-05-21T07:42:55.125Z,18.70
2023-05-21T07:43:56.674Z,20.70
2023-05-21T07:44:58.302Z,19.53
2023-05-21T07:45:59.897Z,18.63
2023-05-21T07:47:01.498Z,21.43
2023-05-21T07:48:03.289Z,19.00
2023-05-21T07:49:04.955Z,25.17
2023-05-21T07:50:06.853Z,18.10
2023-05-21T07:51:08.481Z,16.83
2023-05-21T07:52:10.138Z,19.00
2023-05-21T07:53:11.954Z,20.53
2023-05-21T07:54:13.641Z,17.97
2023-05-21T07:55:15.451Z,20.33
2023-05-21T07:56:17.036Z,18.20
2023-05-21T07:57:18.583Z,21.83
2023-05-21T07:58:20.300Z,18.40
2023-05-21T07:59:21.975Z,21.47
2023-05-21T08:00:23.720Z,22.10
2023-05-21T08:01:25.793Z,20.40
2023-05-21T08:02:27.511Z,18.03
2023-05-21T08:03:30.930Z,19.30
2023-05-21T08:04:32.832Z,20.10
2023-05-21T08:05:34.649Z,18.80
2023-05-21T08:06:40.015Z,19.43
2023-05-21T08:07:41.647Z,19.73
2023-05-21T08:08:43.270Z,18.40
2023-05-21T08:09:44.777Z,21.67
2023-05-21T08:10:47.809Z,20.20
2023-05-21T08:11:49.428Z,18.77
2023-05-21T08:12:51.189Z,21.87
2023-05-21T08:13:52.794Z,21.33
2023-05-21T08:14:54.387Z,22.50
2023-05-21T08:15:55.927Z,22.87
2023-05-21T08:16:57.453Z,18.80
2023-05-21T08:17:59.503Z,19.33
2023-05-21T08:19:01.102Z,18.13
2023-05-21T08:20:03.731Z,19.10
2023-05-21T08:21:05.346Z,19.40
2023-05-21T08:22:07.074Z,20.27
2023-05-21T08:23:08.719Z,18.30
2023-05-21T08:24:10.388Z,19.43
2023-05-21T08:25:12.101Z,19.40
2023-05-21T08:26:16.401Z,20.67
2023-05-21T08:27:17.960Z,20.70
2023-05-21T08:28:19.714Z,18.77
2023-05-21T08:29:21.241Z,18.20
2023-05-21T08:30:23.112Z,24.47
2023-05-21T08:31:24.725Z,17.80
2023-05-21T08:32:26.558Z,17.43
2023-05-21T08:33:28.330Z,18.50
2023-05-21T08:34:30.126Z,19.47
2023-05-21T08:35:31.687Z,18.93
2023-05-21T08:36:33.308Z,17.53
2023-05-21T08:37:34.949Z,19.50
2023-05-21T08:38:36.510Z,17.37
2023-05-21T08:39:38.127Z,23.53
2023-05-21T08:40:41.435Z,29.63
2023-05-21T08:41:49.413Z,17.30
2023-05-21T08:42:51.632Z,18.30
2023-05-21T08:43:56.483Z,17.53
2023-05-21T08:45:00.875Z,20.70
2023-05-21T08:46:03.730Z,17.33
2023-05-21T08:47:07.575Z,17.63
2023-05-21T08:48:10.335Z,18.30
2023-05-21T08:49:12.604Z,16.70
2023-05-21T08:50:14.537Z,15.87
2023-05-21T08:51:16.791Z,16.23
2023-05-21T08:52:18.578Z,19.70
2023-05-21T08:53:28.032Z,21.33
2023-05-21T08:54:30.897Z,21.97
2023-05-21T08:55:32.808Z,17.33
2023-05-21T08:56:34.660Z,21.93
2023-05-21T08:57:36.750Z,17.50
2023-05-21T08:58:40.126Z,24.73
2023-05-21T08:59:44.305Z,15.83
2023-05-21T09:00:45.842Z,16.40
2023-05-21T09:01:50.093Z,19.30
2023-05-21T09:02:54.666Z,20.77
2023-05-21T09:04:04.933Z,16.90
2023-05-21T09:05:15.275Z,20.50
2023-05-21T09:06:17.040Z,18.63
2023-05-21T09:07:19.622Z,17.47
2023-05-21T09:08:29.853Z,19.90
2023-05-21T09:09:37.465Z,27.83
2023-05-21T09:10:40.201Z,17.80
2023-05-21T09:11:42.441Z,21.90
2023-05-21T09:12:44.368Z,18.00
2023-05-21T09:13:46.338Z,19.23
2023-05-21T09:14:48.495Z,16.63
2023-05-21T09:15:51.514Z,18.37
2023-05-21T09:16:53.216Z,25.33
2023-05-21T09:17:55.718Z,17.43
2023-05-21T09:18:57.415Z,18.23
2023-05-21T09:20:17.588Z,15.50
2023-05-21T09:21:26.611Z,19.23
2023-05-21T09:22:28.200Z,20.20
2023-05-21T09:23:29.828Z,19.00
2023-05-21T09:24:33.734Z,30.77
2023-05-21T09:25:38.147Z,22.00
2023-05-21T09:26:42.901Z,19.53
2023-05-21T09:27:44.601Z,17.23
2023-05-21T09:28:46.161Z,19.27
2023-05-21T09:29:47.840Z,19.37
2023-05-21T09:30:53.450Z,17.47
2023-05-21T09:31:55.212Z,16.33
2023-05-21T09:32:58.094Z,16.93
2023-05-21T09:33:59.818Z,16.70
2023-05-21T09:35:08.303Z,18.20
2023-05-21T09:36:09.933Z,18.33
2023-05-21T09:37:23.586Z,15.43
2023-05-21T09:38:29.444Z,16.93
2023-05-21T09:39:31.094Z,17.03
2023-05-21T09:40:34.973Z,25.13
2023-05-21T09:41:37.066Z,16.27
2023-05-21T09:42:39.360Z,15.83
2023-05-21T09:43:44.811Z,17.07
2023-05-21T09:44:47.019Z,17.57
2023-05-21T09:45:56.567Z,16.20
2023-05-21T09:46:59.685Z,20.00
2023-05-21T09:48:01.415Z,21.03
2023-05-21T09:49:03.076Z,16.27
2023-05-21T09:50:04.898Z,16.00
2023-05-21T09:51:13.782Z,16.90
2023-05-21T09:52:22.928Z,17.57
2023-05-21T09:53:24.517Z,19.67
2023-05-21T09:54:31.103Z,14.80
2023-05-21T09:55:36.327Z,14.60
2023-05-21T09:56:39.154Z,13.00
2023-05-21T09:57:41.437Z,16.23
2023-05-21T09:58:43.156Z,14.67
2023-05-21T09:59:44.715Z,12.63
2023-05-21T10:00:46.354Z,14.37
2023-05-21T10:01:50.775Z,15.30
2023-05-21T10:02:56.285Z,17.10
2023-05-21T10:03:58.592Z,18.23
2023-05-21T10:05:00.625Z,14.40
2023-05-21T10:06:02.231Z,13.57
2023-05-21T10:07:04.186Z,12.97
2023-05-21T10:08:09.208Z,14.73
2023-05-21T10:09:11.982Z,13.67
2023-05-21T10:10:14.837Z,13.37
2023-05-21T10:11:16.750Z,13.33
2023-05-21T10:12:19.499Z,14.27
2023-05-21T10:13:22.010Z,12.60
2023-05-21T10:14:25.529Z,13.57
2023-05-21T10:15:28.241Z,13.53
2023-05-21T10:16:30.854Z,13.27
2023-05-21T10:17:32.605Z,13.80
2023-05-21T10:18:35.041Z,12.37
2023-05-21T10:19:37.475Z,13.67
2023-05-21T10:20:39.666Z,16.77
2023-05-21T10:21:41.695Z,15.00
2023-05-21T10:22:44.361Z,13.17
2023-05-21T10:23:46.998Z,11.87
2023-05-21T10:24:49.047Z,13.17
2023-05-21T10:25:51.256Z,17.73
2023-05-21T10:26:53.037Z,13.77
2023-05-21T10:27:55.600Z,14.53
2023-05-21T10:28:58.468Z,12.77
2023-05-21T10:30:00.520Z,19.73
2023-05-21T10:31:02.450Z,12.83
2023-05-21T10:32:05.686Z,13.20
2023-05-21T10:33:07.792Z,12.23
2023-05-21T10:34:10.757Z,11.43
2023-05-21T10:35:15.892Z,11.30
2023-05-21T10:36:18.659Z,13.27
2023-05-21T10:37:28.047Z,14.17
2023-05-21T10:38:30.444Z,13.83
2023-05-21T10:39:32.152Z,14.80
2023-05-21T10:40:36.144Z,12.40
2023-05-21T10:41:43.863Z,19.27
2023-05-21T10:42:51.326Z,17.27
2023-05-21T10:44:11.677Z,13.23
2023-05-21T10:45:13.270Z,13.53
2023-05-21T10:46:20.709Z,15.07
2023-05-21T10:47:48.716Z,13.17
2023-05-21T10:49:08.887Z,11.63
2023-05-21T10:50:19.726Z,13.37
2023-05-21T10:51:25.803Z,12.43
2023-05-21T10:52:33.506Z,12.07
2023-05-21T10:53:54.217Z,13.53
2023-05-21T10:55:21.313Z,12.47
2023-05-21T10:56:26.002Z,13.20
2023-05-21T10:57:40.228Z,10.57
2023-05-21T10:58:47.994Z,12.20
2023-05-21T10:59:49.916Z,13.80
2023-05-21T11:00:52.990Z,21.40
2023-05-21T11:01:55.417Z,12.53
2023-05-21T11:02:58.166Z,12.17
2023-05-21T11:03:59.946Z,11.20
2023-05-21T11:05:02.238Z,14.13
2023-05-21T11:06:06.374Z,17.03
2023-05-21T11:07:08.533Z,12.70
2023-05-21T11:08:26.319Z,11.57
2023-05-21T11:09:28.598Z,11.03
2023-05-21T11:10:30.361Z,11.17
2023-05-21T11:11:58.839Z,14.50
2023-05-21T11:13:16.808Z,11.17
2023-05-21T11:14:39.579Z,14.00
2023-05-21T11:15:59.617Z,10.80
2023-05-21T11:17:04.581Z,13.47
2023-05-21T11:18:09.517Z,10.53
2023-05-21T11:19:17.278Z,12.20
2023-05-21T11:20:21.828Z,11.07
2023-05-21T11:21:28.815Z,12.03
2023-05-21T11:22:30.461Z,10.17
2023-05-21T11:23:58.677Z,11.83
2023-05-21T11:25:01.342Z,14.33
2023-05-21T11:26:02.964Z,11.10
2023-05-21T11:27:05.790Z,10.63
2023-05-21T11:28:09.660Z,9.57
2023-05-21T11:29:11.561Z,15.67
2023-05-21T11:30:17.618Z,10.70
2023-05-21T11:31:26.886Z,9.80
2023-05-21T11:32:29.844Z,12.03
2023-05-21T11:33:31.469Z,8.93
2023-05-21T11:34:40.205Z,14.90
2023-05-21T11:35:54.406Z,9.20
2023-05-21T11:37:14.504Z,20.53
2023-05-21T11:38:17.544Z,9.77
2023-05-21T11:39:22.572Z,10.13
2023-05-21T11:40:30.221Z,9.13
2023-05-21T11:41:49.388Z,9.93
2023-05-21T11:42:52.327Z,9.60
2023-05-21T11:44:00.857Z,9.43
2023-05-21T11:45:02.941Z,13.80
2023-05-21T11:46:04.833Z,9.97
2023-05-21T11:47:07.355Z,9.73
2023-05-21T11:48:13.096Z,10.32
2023-05-21T11:49:15.928Z,9.47
2023-05-21T11:50:17.978Z,9.82
2023-05-21T11:51:20.069Z,9.35
2023-05-21T11:52:21.716Z,12.95
2023-05-21T11:53:23.256Z,15.65
2023-05-21T11:54:25.979Z,9.80
2023-05-21T11:55:27.683Z,12.47
2023-05-21T11:56:31.882Z,10.53
2023-05-21T11:57:33.552Z,17.37
2023-05-21T11:58:35.182Z,9.23
2023-05-21T11:59:37.023Z,13.95
2023-05-21T12:00:40.229Z,10.40
2023-05-21T12:01:42.334Z,9.03
2023-05-21T12:02:45.018Z,9.57
2023-05-21T12:03:46.788Z,9.63
2023-05-21T12:04:49.209Z,9.48
2023-05-21T12:05:51.554Z,8.77
2023-05-21T12:06:53.270Z,9.13
2023-05-21T12:07:55.602Z,9.30
2023-05-21T12:08:58.484Z,10.37
2023-05-21T12:10:00.416Z,11.07
2023-05-21T12:11:02.822Z,9.77
2023-05-21T12:12:06.171Z,9.70
2023-05-21T12:13:07.793Z,9.23
2023-05-21T12:14:12.190Z,14.53
2023-05-21T12:15:13.905Z,9.90
2023-05-21T12:16:15.629Z,9.50
2023-05-21T12:17:18.125Z,15.60
2023-05-21T12:18:19.803Z,10.20
2023-05-21T12:19:22.138Z,10.37
2023-05-21T12:20:26.258Z,9.90
2023-05-21T12:21:29.676Z,11.00
2023-05-21T12:22:31.274Z,10.23
2023-05-21T12:23:33.413Z,11.10
2023-05-21T12:24:35.811Z,9.37
2023-05-21T12:25:37.316Z,9.53
2023-05-21T12:26:38.903Z,9.13
2023-05-21T12:27:42.046Z,11.40
2023-05-21T12:28:43.988Z,9.73
2023-05-21T12:29:46.438Z,9.27
2023-05-21T12:30:48.185Z,9.93
2023-05-21T12:31:50.567Z,11.17
2023-05-21T12:32:52.401Z,10.90
2023-05-21T12:33:53.979Z,9.60
2023-05-21T12:34:56.408Z,9.70
2023-05-21T12:35:58.095Z,10.10
2023-05-21T12:36:59.653Z,9.53
2023-05-21T12:38:03.042Z,9.83
2023-05-21T12:39:04.677Z,9.13
2023-05-21T12:40:07.844Z,9.97
2023-05-21T12:41:09.471Z,9.57
2023-05-21T12:42:11.446Z,10.93
2023-05-21T12:43:13.265Z,15.60
2023-05-21T12:44:14.918Z,12.00
2023-05-21T12:45:18.606Z,11.93
2023-05-21T12:46:20.887Z,10.87
2023-05-21T12:47:29.666Z,11.40
2023-05-21T12:48:31.241Z,10.47
2023-05-21T12:49:42.426Z,11.43
2023-05-21T12:50:44.026Z,15.17
2023-05-21T12:51:45.728Z,10.73
2023-05-21T12:52:47.443Z,11.20
2023-05-21T12:53:49.199Z,10.73
2023-05-21T12:54:52.190Z,12.97
2023-05-21T12:55:56.390Z,11.67
2023-05-21T12:56:57.975Z,14.83
2023-05-21T12:58:08.445Z,11.00
2023-05-21T12:59:14.605Z,11.80
2023-05-21T13:00:23.156Z,11.00
2023-05-21T13:01:24.947Z,11.13
2023-05-21T13:02:26.903Z,10.20
2023-05-21T13:03:28.929Z,10.20
2023-05-21T13:04:30.903Z,10.63
2023-05-21T13:05:32.665Z,10.53
2023-05-21T13:06:44.029Z,10.60
2023-05-21T13:07:47.673Z,11.83
2023-05-21T13:08:49.681Z,10.60
2023-05-21T13:09:53.232Z,10.63
2023-05-21T13:10:55.049Z,10.83
2023-05-21T13:11:56.639Z,8.83
2023-05-21T13:12:58.307Z,9.33
2023-05-21T13:14:00.011Z,10.60
2023-05-21T13:15:02.352Z,10.30
2023-05-21T13:16:03.954Z,11.73
2023-05-21T13:17:05.869Z,18.10
2023-05-21T13:18:07.508Z,11.67
2023-05-21T13:19:09.271Z,10.67
2023-05-21T13:20:12.527Z,10.20
2023-05-21T13:21:14.312Z,9.47
2023-05-21T13:22:15.838Z,10.33
2023-05-21T13:23:17.518Z,9.60
2023-05-21T13:24:19.096Z,9.47
2023-05-21T13:25:22.751Z,9.30
2023-05-21T13:26:24.306Z,10.40
2023-05-21T13:27:25.836Z,12.80
2023-05-21T13:28:27.366Z,10.33
2023-05-21T13:29:29.254Z,8.67
2023-05-21T13:30:30.937Z,17.10
2023-05-21T13:31:32.591Z,9.97
2023-05-21T13:32:34.635Z,15.87